Time;durP1;ratioP1;P1;durP2;ratioP2;P2;SDS_P1;SDS_P2;PMS_P1;PMS_P2;Temp;Humidity;BMP_temperature;BMP_pressure;BME280_temperature;BME280_humidity;BME280_pressure;Samples;Min_cycle;Max_cycle;Signal;HPM_P1;HPM_P2
2023/03/07 00:00:36;;;;;;;14.93;5.75;;;5.00;99.90;;;;;;5090185;28;20390;-59
2023/03/07 00:03:01;;;;;;;15.85;6.03;;;5.20;99.90;;;;;;5091008;28;20754;-58
2023/03/07 00:05:27;;;;;;;14.93;6.00;;;3.70;99.90;;;;;;5090556;28;20378;-58
2023/03/07 00:07:53;;;;;;;15.85;5.88;;;3.60;99.90;;;;;;5090719;28;20488;-58
2023/03/07 00:10:18;;;;;;;15.30;6.97;;;3.60;99.90;;;;;;5090935;28;20398;-58
2023/03/07 00:12:44;;;;;;;16.63;6.53;;;3.60;99.90;;;;;;5090116;28;20397;-58
2023/03/07 00:15:10;;;;;;;15.20;6.38;;;3.60;99.90;;;;;;5090748;28;20369;-58
2023/03/07 00:17:36;;;;;;;16.88;6.20;;;3.50;99.90;;;;;;5089585;28;20879;-58
2023/03/07 00:20:07;;;;;;;14.95;5.35;;;3.60;99.90;;;;;;5090692;28;20411;-59
2023/03/07 00:22:36;;;;;;;16.10;6.40;;;3.60;99.90;;;;;;5089687;28;20843;-58
2023/03/07 00:25:02;;;;;;;15.35;6.68;;;3.60;99.90;;;;;;5090652;28;20455;-59
2023/03/07 00:27:30;;;;;;;15.18;6.05;;;3.70;99.90;;;;;;5089928;28;20444;-58
2023/03/07 00:29:55;;;;;;;19.77;6.80;;;3.60;99.90;;;;;;5090503;28;20463;-58
2023/03/07 00:32:21;;;;;;;12.48;5.70;;;3.60;99.90;;;;;;5090473;28;20394;-58
2023/03/07 00:34:46;;;;;;;17.33;7.03;;;3.70;99.90;;;;;;5089265;28;20396;-59
2023/03/07 00:37:14;;;;;;;14.57;6.30;;;3.70;99.90;;;;;;5090425;28;20473;-58
2023/03/07 00:39:40;;;;;;;15.60;6.53;;;4.30;99.90;;;;;;5049513;28;20390;-59
2023/03/07 00:42:06;;;;;;;19.30;6.10;;;3.70;99.90;;;;;;5076368;28;20386;-59
2023/03/07 00:44:32;;;;;;;14.40;5.25;;;3.80;99.90;;;;;;5089275;28;20417;-59
2023/03/07 00:46:58;;;;;;;15.03;6.50;;;3.70;99.90;;;;;;5090101;28;20461;-58
2023/03/07 00:49:23;;;;;;;14.38;5.60;;;3.70;99.90;;;;;;5089812;28;20390;-58
2023/03/07 00:51:49;;;;;;;15.05;6.03;;;3.70;99.90;;;;;;5089138;28;21222;-58
2023/03/07 00:54:15;;;;;;;15.23;6.53;;;3.70;99.90;;;;;;5089043;28;20747;-58
2023/03/07 00:56:40;;;;;;;14.97;5.60;;;3.70;99.90;;;;;;5089424;28;20401;-58
2023/03/07 00:59:07;;;;;;;14.70;6.13;;;5.20;99.90;;;;;;5089932;28;20892;-59
2023/03/07 01:01:32;;;;;;;15.55;6.10;;;3.80;99.90;;;;;;5088912;28;20390;-58
2023/03/07 01:03:58;;;;;;;18.35;6.10;;;3.90;99.90;;;;;;5090029;28;20405;-59
2023/03/07 01:06:29;;;;;;;15.40;5.60;;;3.90;99.90;;;;;;5089844;28;20747;-58
2023/03/07 01:08:58;;;;;;;16.05;6.57;;;4.00;99.90;;;;;;5089637;28;20455;-58
2023/03/07 01:11:26;;;;;;;16.08;6.30;;;3.90;99.90;;;;;;5089585;28;20393;-58
2023/03/07 01:13:54;;;;;;;14.70;5.75;;;3.80;99.90;;;;;;5088548;28;20539;-59
2023/03/07 01:16:22;;;;;;;18.40;6.30;;;3.80;99.90;;;;;;5089857;28;20378;-58
2023/03/07 01:18:50;;;;;;;15.07;5.40;;;5.10;99.90;;;;;;5088731;28;20785;-58
2023/03/07 01:21:26;;;;;;;15.85;6.47;;;4.40;99.90;;;;;;5089403;28;20755;-58
2023/03/07 01:23:52;;;;;;;15.60;5.90;;;3.90;99.90;;;;;;5088538;28;20393;-58
2023/03/07 01:26:26;;;;;;;16.17;5.75;;;5.40;99.90;;;;;;5089921;28;20408;-58
2023/03/07 01:28:54;;;;;;;15.48;6.30;;;3.90;99.90;;;;;;5088825;28;20410;-59
2023/03/07 01:31:20;;;;;;;17.13;6.03;;;3.90;99.90;;;;;;5089156;28;20390;-58
2023/03/07 01:33:50;;;;;;;15.10;5.17;;;3.90;99.90;;;;;;5088854;28;20408;-58
2023/03/07 01:36:28;;;;;;;15.85;6.60;;;3.90;99.90;;;;;;5089491;28;20382;-58
2023/03/07 01:38:55;;;;;;;14.60;5.18;;;4.00;99.90;;;;;;5089095;28;20473;-58
2023/03/07 01:41:21;;;;;;;13.60;5.63;;;4.00;99.90;;;;;;5088633;28;20816;-58
2023/03/07 01:43:47;;;;;;;17.60;5.80;;;3.80;99.90;;;;;;5088447;28;20437;-59
2023/03/07 01:46:16;;;;;;;14.37;6.40;;;4.60;99.90;;;;;;5089386;28;20469;-58
2023/03/07 01:48:54;;;;;;;17.88;5.68;;;5.30;99.90;;;;;;5056695;28;20483;-58
2023/03/07 01:51:21;;;;;;;14.85;5.40;;;3.70;99.90;;;;;;5086198;28;20398;-58
2023/03/07 01:53:48;;;;;;;17.58;5.70;;;3.70;99.90;;;;;;5088661;28;20910;-58
2023/03/07 01:56:14;;;;;;;12.20;5.05;;;3.80;99.90;;;;;;5089649;28;20489;-58
2023/03/07 01:58:40;;;;;;;15.63;5.65;;;5.40;99.90;;;;;;5088270;28;20505;-57
2023/03/07 02:01:09;;;;;;;14.32;5.30;;;3.80;99.90;;;;;;5089009;28;20864;-58
2023/03/07 02:03:38;;;;;;;14.60;5.73;;;3.80;99.90;;;;;;5088446;28;20374;-58
2023/03/07 02:06:08;;;;;;;13.93;5.40;;;3.80;99.90;;;;;;5089022;28;20394;-58
2023/03/07 02:08:35;;;;;;;14.43;5.60;;;3.70;99.90;;;;;;5087083;28;20505;-58
2023/03/07 02:11:01;;;;;;;15.68;5.40;;;3.80;99.90;;;;;;5089155;28;20389;-58
2023/03/07 02:13:28;;;;;;;16.77;6.43;;;3.70;99.90;;;;;;5088917;28;20404;-58
2023/03/07 02:15:54;;;;;;;13.88;4.95;;;3.70;99.90;;;;;;5092474;28;20978;-58
2023/03/07 02:18:26;;;;;;;16.30;6.07;;;4.50;99.90;;;;;;5093096;28;20390;-58
2023/03/07 02:21:16;;;;;;;16.55;5.97;;;3.60;99.90;;;;;;5092330;28;20433;-58
2023/03/07 02:23:57;;;;;;;14.40;5.97;;;3.70;99.90;;;;;;5092293;28;20378;-59
2023/03/07 02:26:42;;;;;;;14.75;5.00;;;3.70;99.90;;;;;;5092187;28;20402;-58
2023/03/07 02:29:09;;;;;;;13.07;5.07;;;3.80;99.90;;;;;;5092548;28;20448;-58
2023/03/07 02:31:35;;;;;;;15.10;5.20;;;5.20;99.90;;;;;;5091887;28;20385;-58
2023/03/07 02:34:00;;;;;;;15.53;5.50;;;3.80;99.90;;;;;;5092995;28;20382;-58
2023/03/07 02:36:35;;;;;;;14.02;5.32;;;5.00;99.90;;;;;;5090788;28;20922;-58
2023/03/07 02:39:05;;;;;;;10.93;4.90;;;3.90;99.90;;;;;;5092685;28;20428;-58
2023/03/07 02:41:33;;;;;;;13.43;4.93;;;3.90;99.90;;;;;;5092365;28;20423;-60
2023/03/07 02:43:59;;;;;;;16.17;6.37;;;4.10;99.90;;;;;;5092914;28;20390;-58
2023/03/07 02:46:26;;;;;;;14.30;5.20;;;4.10;99.90;;;;;;5092087;28;20472;-58
2023/03/07 02:48:51;;;;;;;14.20;6.00;;;4.00;99.90;;;;;;5091413;28;20480;-59
2023/03/07 02:51:17;;;;;;;13.18;4.70;;;4.60;99.90;;;;;;5092753;28;20370;-58
2023/03/07 02:53:43;;;;;;;15.73;5.50;;;4.00;99.90;;;;;;5091451;28;20390;-58
2023/03/07 02:56:08;;;;;;;14.27;5.57;;;4.00;99.90;;;;;;5092143;28;20390;-58
2023/03/07 02:58:34;;;;;;;15.07;5.40;;;4.00;99.90;;;;;;5091427;28;20399;-58
2023/03/07 03:01:01;;;;;;;16.60;5.70;;;4.00;99.90;;;;;;5092064;28;20804;-58
2023/03/07 03:03:26;;;;;;;14.30;5.60;;;5.70;99.90;;;;;;5092117;28;20393;-58
2023/03/07 03:05:52;;;;;;;18.33;5.40;;;4.00;99.90;;;;;;5091389;28;20403;-58
2023/03/07 03:08:18;;;;;;;14.73;5.33;;;4.00;99.90;;;;;;5092242;28;20421;-58
2023/03/07 03:10:43;;;;;;;13.45;5.05;;;4.10;99.90;;;;;;5091281;28;20878;-58
2023/03/07 03:13:09;;;;;;;14.47;5.33;;;4.10;99.90;;;;;;5091906;28;20439;-58
2023/03/07 03:15:34;;;;;;;15.07;5.70;;;4.10;99.90;;;;;;5091663;28;20378;-59
2023/03/07 03:18:00;;;;;;;14.15;5.38;;;5.60;99.90;;;;;;5090758;28;20390;-58
2023/03/07 03:20:26;;;;;;;15.37;5.10;;;4.20;99.90;;;;;;5091838;28;20381;-58
2023/03/07 03:22:53;;;;;;;17.05;5.45;;;4.10;99.90;;;;;;5091287;28;20386;-58
2023/03/07 03:25:21;;;;;;;13.93;6.03;;;4.00;99.90;;;;;;5091158;28;20432;-58
2023/03/07 03:27:48;;;;;;;13.70;4.90;;;3.90;99.90;;;;;;5090859;28;20444;-58
2023/03/07 03:30:14;;;;;;;16.25;5.97;;;3.80;99.90;;;;;;5089217;28;20406;-58
2023/03/07 03:32:40;;;;;;;13.82;5.95;;;3.80;99.90;;;;;;5084418;28;20393;-58
2023/03/07 03:35:07;;;;;;;17.15;5.50;;;3.60;99.90;;;;;;5091625;28;20386;-58
2023/03/07 03:37:33;;;;;;;11.70;4.78;;;3.70;99.90;;;;;;5090077;28;20440;-58
2023/03/07 03:39:58;;;;;;;13.23;5.25;;;3.70;99.90;;;;;;5090731;28;20378;-58
2023/03/07 03:42:24;;;;;;;14.80;5.30;;;3.80;99.90;;;;;;5090991;28;20386;-58
2023/03/07 03:44:49;;;;;;;12.88;5.78;;;3.70;99.90;;;;;;5090026;28;20405;-58
2023/03/07 03:47:15;;;;;;;15.70;5.87;;;3.80;99.90;;;;;;5090837;28;20421;-58
2023/03/07 03:49:41;;;;;;;16.90;6.70;;;3.80;99.90;;;;;;5090245;28;20421;-58
2023/03/07 03:52:07;;;;;;;15.98;6.68;;;3.80;99.90;;;;;;5090884;28;20436;-58
2023/03/07 03:54:32;;;;;;;13.10;5.13;;;3.80;99.90;;;;;;5089878;28;20390;-58
2023/03/07 03:56:58;;;;;;;15.00;5.67;;;3.80;99.90;;;;;;5090813;28;20852;-58
2023/03/07 03:59:24;;;;;;;19.27;5.97;;;3.80;99.90;;;;;;5089605;28;20421;-58
2023/03/07 04:01:50;;;;;;;14.98;5.60;;;3.70;99.90;;;;;;5084417;28;20605;-58
2023/03/07 04:04:15;;;;;;;11.87;4.60;;;5.10;99.90;;;;;;5090451;28;20390;-58
2023/03/07 04:06:41;;;;;;;14.77;6.10;;;4.60;99.90;;;;;;5089591;28;20568;-58
2023/03/07 04:09:08;;;;;;;18.80;6.25;;;4.00;99.90;;;;;;5090450;28;20382;-58
2023/03/07 04:11:34;;;;;;;14.77;5.88;;;4.40;99.90;;;;;;5089470;28;20447;-59
2023/03/07 04:14:00;;;;;;;17.05;5.90;;;3.60;99.90;;;;;;5090544;28;20382;-58
2023/03/07 04:16:26;;;;;;;15.23;6.10;;;3.50;99.90;;;;;;5090473;28;20374;-58
2023/03/07 04:18:52;;;;;;;18.40;6.70;;;4.60;99.90;;;;;;5089361;28;20431;-58
2023/03/07 04:21:18;;;;;;;14.70;5.30;;;3.80;99.90;;;;;;5090396;28;20398;-58
2023/03/07 04:23:44;;;;;;;15.40;5.50;;;3.80;99.90;;;;;;5089682;28;20397;-58
2023/03/07 04:26:11;;;;;;;16.00;5.63;;;3.90;99.90;;;;;;5090475;28;20382;-58
2023/03/07 04:28:43;;;;;;;19.15;6.68;;;3.90;99.90;;;;;;5089061;28;20931;-58
2023/03/07 04:31:16;;;;;;;14.27;5.77;;;3.90;99.90;;;;;;5081683;28;20403;-57
2023/03/07 04:33:42;;;;;;;15.93;6.15;;;3.90;99.90;;;;;;5077651;28;20406;-58
2023/03/07 04:36:08;;;;;;;17.70;5.43;;;4.00;99.90;;;;;;5089981;28;20465;-58
2023/03/07 04:38:34;;;;;;;15.02;5.95;;;5.40;99.90;;;;;;5089651;28;20783;-58
2023/03/07 04:41:00;;;;;;;17.73;5.45;;;3.90;99.90;;;;;;5085702;28;20427;-58
2023/03/07 04:43:25;;;;;;;14.98;6.15;;;3.90;99.90;;;;;;5090318;28;20744;-58
2023/03/07 04:45:52;;;;;;;13.33;5.43;;;3.90;99.90;;;;;;5089419;28;21016;-58
2023/03/07 04:48:18;;;;;;;16.58;5.90;;;3.90;99.90;;;;;;5090253;28;20463;-58
2023/03/07 04:50:43;;;;;;;14.00;5.85;;;3.90;99.90;;;;;;5083908;28;20413;-58
2023/03/07 04:53:09;;;;;;;13.70;5.70;;;3.90;99.90;;;;;;5084845;28;20939;-58
2023/03/07 04:55:34;;;;;;;14.80;5.97;;;3.90;99.90;;;;;;5087210;28;20406;-58
2023/03/07 04:58:00;;;;;;;19.10;6.67;;;5.70;99.90;;;;;;5089531;28;20482;-58
2023/03/07 05:00:26;;;;;;;16.92;6.28;;;4.00;99.90;;;;;;5086722;28;20940;-58
2023/03/07 05:02:55;;;;;;;13.50;5.40;;;4.10;99.90;;;;;;5086577;28;20421;-58
2023/03/07 05:05:20;;;;;;;14.32;5.60;;;4.10;99.90;;;;;;5087446;28;20443;-58
2023/03/07 05:07:46;;;;;;;13.17;5.33;;;4.10;99.90;;;;;;5074599;28;20888;-58
2023/03/07 05:10:12;;;;;;;13.07;5.03;;;4.10;99.90;;;;;;5077235;28;20428;-58
2023/03/07 05:12:37;;;;;;;12.77;5.07;;;4.20;99.90;;;;;;5081433;28;20918;-58
2023/03/07 05:15:03;;;;;;;12.53;4.50;;;4.10;99.90;;;;;;5087532;28;20401;-58
2023/03/07 05:17:30;;;;;;;12.68;4.68;;;4.10;99.90;;;;;;5089016;28;20397;-58
2023/03/07 05:19:56;;;;;;;15.50;5.53;;;4.20;99.90;;;;;;5088730;28;20401;-58
2023/03/07 05:22:22;;;;;;;11.77;4.63;;;4.20;99.90;;;;;;5089440;28;20390;-57
2023/03/07 05:24:47;;;;;;;13.10;5.20;;;4.10;99.90;;;;;;5070445;28;20506;-58
2023/03/07 05:27:13;;;;;;;14.10;5.38;;;4.20;99.90;;;;;;5073862;28;20405;-58
2023/03/07 05:29:39;;;;;;;14.20;5.13;;;4.30;99.90;;;;;;5077983;28;20414;-58
2023/03/07 05:32:05;;;;;;;14.13;5.07;;;4.20;99.90;;;;;;5082200;28;20409;-58
2023/03/07 05:34:30;;;;;;;13.30;4.70;;;4.20;99.90;;;;;;5076386;28;20392;-58
2023/03/07 05:36:57;;;;;;;13.48;4.68;;;4.10;99.90;;;;;;5071674;28;20421;-58
2023/03/07 05:39:23;;;;;;;15.38;6.25;;;4.10;99.90;;;;;;5088009;28;20394;-58
2023/03/07 05:41:49;;;;;;;18.42;5.30;;;4.20;99.90;;;;;;5088709;28;20382;-58
2023/03/07 05:44:15;;;;;;;13.93;4.63;;;4.20;99.90;;;;;;5089333;28;20412;-58
2023/03/07 05:46:41;;;;;;;12.30;4.80;;;6.00;99.90;;;;;;5088847;28;20754;-58
2023/03/07 05:49:06;;;;;;;13.03;4.77;;;4.30;99.90;;;;;;5092672;28;20442;-58
2023/03/07 05:51:32;;;;;;;13.53;5.23;;;5.10;99.90;;;;;;5085441;28;20818;-58
2023/03/07 05:53:58;;;;;;;13.43;4.80;;;4.90;99.90;;;;;;5072953;28;20379;-58
2023/03/07 05:56:24;;;;;;;13.52;5.50;;;4.10;99.90;;;;;;5088046;28;20436;-58
2023/03/07 05:58:49;;;;;;;14.85;5.80;;;4.20;99.90;;;;;;5072481;28;20419;-58
2023/03/07 06:01:15;;;;;;;14.00;5.80;;;5.80;99.90;;;;;;5072739;28;20393;-58
2023/03/07 06:03:41;;;;;;;16.08;6.35;;;4.10;99.90;;;;;;5066976;28;20474;-59
2023/03/07 06:06:07;;;;;;;14.98;5.72;;;4.20;99.90;;;;;;5078719;28;20860;-58
2023/03/07 06:08:33;;;;;;;17.83;6.63;;;4.10;99.90;;;;;;5073328;28;20432;-58
2023/03/07 06:10:59;;;;;;;13.63;5.75;;;4.00;99.90;;;;;;5074797;28;20379;-58
2023/03/07 06:13:25;;;;;;;17.43;5.87;;;4.00;99.90;;;;;;5075752;28;20393;-58
2023/03/07 06:15:52;;;;;;;16.00;6.00;;;4.00;99.90;;;;;;5063302;28;20405;-58
2023/03/07 06:18:18;;;;;;;18.38;5.00;;;4.00;99.90;;;;;;5060499;28;20499;-58
2023/03/07 06:20:44;;;;;;;13.30;6.05;;;4.50;99.90;;;;;;5064338;28;20383;-58
2023/03/07 06:23:09;;;;;;;17.20;5.60;;;3.90;99.90;;;;;;5068310;28;20959;-59
2023/03/07 06:25:36;;;;;;;19.67;6.17;;;3.80;99.90;;;;;;5072798;28;20396;-58
2023/03/07 06:28:01;;;;;;;13.27;5.40;;;3.80;99.90;;;;;;5082976;28;20425;-57
2023/03/07 06:30:27;;;;;;;15.00;5.20;;;3.80;99.90;;;;;;5092838;28;20709;-58
2023/03/07 06:32:53;;;;;;;18.45;6.40;;;3.90;99.90;;;;;;5091744;28;20385;-58
2023/03/07 06:35:19;;;;;;;13.68;5.45;;;4.80;99.90;;;;;;5092610;28;20384;-58
2023/03/07 06:37:45;;;;;;;14.20;5.63;;;3.90;99.90;;;;;;5091657;28;20497;-59
2023/03/07 06:40:11;;;;;;;16.27;6.05;;;4.70;99.90;;;;;;5092342;28;20397;-58
2023/03/07 06:42:37;;;;;;;15.85;5.55;;;4.00;99.90;;;;;;5091315;28;20830;-58
2023/03/07 06:45:03;;;;;;;18.90;7.18;;;4.80;99.90;;;;;;5092000;28;20401;-58
2023/03/07 06:47:29;;;;;;;12.80;4.80;;;4.10;99.90;;;;;;5092421;28;20401;-58
2023/03/07 06:49:54;;;;;;;13.65;5.40;;;5.00;99.90;;;;;;5091618;28;21001;-58
2023/03/07 06:52:21;;;;;;;14.20;4.80;;;5.60;99.90;;;;;;5092357;28;20903;-58
2023/03/07 06:54:47;;;;;;;14.98;6.03;;;4.10;99.90;;;;;;5090002;28;20893;-58
2023/03/07 06:57:12;;;;;;;12.63;4.77;;;6.10;99.90;;;;;;5092504;28;20389;-58
2023/03/07 06:59:38;;;;;;;14.15;5.60;;;4.20;99.90;;;;;;5090246;28;20543;-59
2023/03/07 07:02:04;;;;;;;17.95;5.90;;;6.00;99.90;;;;;;5091946;28;20386;-58
2023/03/07 07:04:30;;;;;;;13.20;5.97;;;5.10;99.90;;;;;;5074261;28;20430;-58
2023/03/07 07:06:55;;;;;;;14.17;5.23;;;4.30;99.90;;;;;;5073697;28;20411;-58
2023/03/07 07:09:21;;;;;;;13.73;4.97;;;4.20;99.90;;;;;;5075653;28;20402;-58
2023/03/07 07:11:46;;;;;;;12.60;5.10;;;5.00;99.90;;;;;;5091119;28;20752;-58
2023/03/07 07:14:12;;;;;;;13.23;4.88;;;4.30;99.90;;;;;;5091771;28;20390;-58
2023/03/07 07:16:37;;;;;;;10.53;4.27;;;4.40;99.90;;;;;;5090772;28;20475;-58
2023/03/07 07:19:03;;;;;;;13.30;5.00;;;4.30;99.90;;;;;;5075172;28;20390;-58
2023/03/07 07:21:29;;;;;;;17.35;6.00;;;5.70;99.90;;;;;;5091295;28;20386;-58
2023/03/07 07:23:56;;;;;;;12.90;5.20;;;4.70;99.90;;;;;;5072661;28;20380;-58
2023/03/07 07:26:23;;;;;;;12.00;4.50;;;4.70;99.90;;;;;;5088070;28;20918;-58
2023/03/07 07:28:48;;;;;;;18.02;5.30;;;6.00;99.90;;;;;;5090064;28;20425;-58
2023/03/07 07:31:14;;;;;;;14.32;5.53;;;5.50;99.90;;;;;;5091972;28;20382;-58
2023/03/07 07:33:40;;;;;;;11.52;4.35;;;5.70;99.90;;;;;;5090503;28;20409;-58
2023/03/07 07:36:07;;;;;;;14.53;5.20;;;4.90;99.90;;;;;;5090741;28;20398;-58
2023/03/07 07:38:32;;;;;;;12.38;4.40;;;5.10;99.90;;;;;;5091575;28;20401;-58
2023/03/07 07:40:58;;;;;;;13.30;4.40;;;5.00;99.90;;;;;;5072583;28;20384;-60
2023/03/07 07:43:24;;;;;;;12.00;4.93;;;5.90;99.90;;;;;;5090170;28;20401;-59
2023/03/07 07:45:49;;;;;;;13.43;5.22;;;5.30;99.90;;;;;;5090375;28;20386;-59
2023/03/07 07:48:15;;;;;;;14.63;5.60;;;6.40;99.90;;;;;;5091176;28;20402;-58
2023/03/07 07:50:41;;;;;;;16.02;5.47;;;6.40;99.90;;;;;;5079797;28;20384;-59
2023/03/07 07:53:07;;;;;;;12.02;4.45;;;6.70;99.90;;;;;;5086801;28;20444;-59
2023/03/07 07:55:32;;;;;;;13.90;5.50;;;7.50;99.90;;;;;;5090540;28;20755;-58
2023/03/07 07:57:58;;;;;;;13.82;5.63;;;6.90;99.90;;;;;;5090449;28;20412;-58
2023/03/07 08:00:24;;;;;;;13.20;5.00;;;6.60;99.90;;;;;;5091368;28;20386;-58
2023/03/07 08:02:50;;;;;;;14.47;4.90;;;6.70;99.90;;;;;;5090079;28;20742;-58
2023/03/07 08:05:18;;;;;;;14.98;4.97;;;8.10;99.90;;;;;;5091057;28;20985;-58
2023/03/07 08:07:44;;;;;;;11.30;4.38;;;6.60;99.90;;;;;;5089842;28;20495;-58
2023/03/07 08:10:14;;;;;;;11.65;4.28;;;6.80;99.90;;;;;;5090457;28;20978;-58
2023/03/07 08:12:41;;;;;;;13.45;5.47;;;7.50;99.90;;;;;;5089772;28;20427;-58
2023/03/07 08:15:07;;;;;;;13.23;5.65;;;8.10;99.90;;;;;;5072159;28;20873;-59
2023/03/07 08:17:33;;;;;;;15.57;5.88;;;8.10;99.90;;;;;;5080871;28;20394;-59
2023/03/07 08:20:00;;;;;;;14.60;5.77;;;8.10;99.90;;;;;;5089968;28;20382;-59
2023/03/07 08:22:26;;;;;;;16.50;4.47;;;8.40;99.90;;;;;;5090075;28;20390;-59
2023/03/07 08:24:52;;;;;;;11.87;4.60;;;8.30;99.90;;;;;;5089345;28;20953;-59
2023/03/07 08:27:17;;;;;;;10.15;3.30;;;8.60;99.90;;;;;;5090358;28;20510;-59
2023/03/07 08:29:47;;;;;;;13.33;5.23;;;8.10;99.90;;;;;;5089137;28;21813;-59
2023/03/07 08:32:14;;;;;;;14.32;4.60;;;7.80;99.90;;;;;;5090246;28;20401;-59
2023/03/07 08:34:39;;;;;;;13.63;4.23;;;7.80;99.90;;;;;;5089297;28;20401;-60
2023/03/07 08:37:05;;;;;;;12.93;4.40;;;8.00;99.90;;;;;;5090278;28;20431;-59
2023/03/07 08:39:30;;;;;;;13.40;5.00;;;8.30;99.90;;;;;;5090082;28;20378;-59
2023/03/07 08:41:56;;;;;;;12.32;3.95;;;8.70;99.90;;;;;;5088327;28;20578;-59
2023/03/07 08:44:21;;;;;;;14.20;5.50;;;8.50;99.90;;;;;;5089804;28;20417;-59
2023/03/07 08:46:47;;;;;;;12.90;5.43;;;9.80;99.90;;;;;;5089014;28;20449;-60
2023/03/07 08:49:13;;;;;;;10.70;3.63;;;8.80;99.90;;;;;;5087920;28;20477;-59
2023/03/07 08:51:38;;;;;;;12.75;4.68;;;8.70;99.90;;;;;;5088412;28;20382;-60
2023/03/07 08:54:04;;;;;;;11.80;4.80;;;8.60;99.90;;;;;;5089538;28;20411;-59
2023/03/07 08:56:29;;;;;;;13.37;4.57;;;9.30;99.90;;;;;;5088945;28;20386;-60
2023/03/07 08:58:55;;;;;;;12.02;4.72;;;9.30;99.90;;;;;;5069161;28;20656;-60
2023/03/07 09:01:21;;;;;;;12.33;4.97;;;9.30;99.90;;;;;;5069530;28;20379;-59
2023/03/07 09:03:46;;;;;;;10.40;4.23;;;10.00;99.90;;;;;;5068424;28;21203;-59
2023/03/07 09:06:19;;;;;;;12.05;3.95;;;10.10;99.90;;;;;;5069710;28;20380;-59
2023/03/07 09:08:46;;;;;;;12.68;4.78;;;9.50;99.90;;;;;;5069337;28;20423;-60
2023/03/07 09:11:12;;;;;;;12.60;4.82;;;9.40;99.90;;;;;;5089557;28;20382;-59
2023/03/07 09:13:38;;;;;;;14.75;4.13;;;8.70;99.90;;;;;;5083054;28;21002;-59
2023/03/07 09:16:05;;;;;;;12.25;4.28;;;8.80;99.90;;;;;;5069349;28;20380;-59
2023/03/07 09:18:31;;;;;;;11.10;4.00;;;9.20;99.90;;;;;;5069313;28;20467;-59
2023/03/07 09:21:00;;;;;;;9.97;4.20;;;9.20;99.90;;;;;;5068372;28;20460;-60
2023/03/07 09:23:26;;;;;;;10.57;3.53;;;9.20;99.90;;;;;;5076512;28;20473;-59
2023/03/07 09:25:51;;;;;;;14.80;4.13;;;9.30;99.90;;;;;;5088800;28;20486;-59
2023/03/07 09:28:17;;;;;;;10.55;3.47;;;8.60;99.90;;;;;;5088261;28;20414;-59
2023/03/07 09:30:43;;;;;;;9.37;3.30;;;7.90;99.90;;;;;;5085835;28;20393;-59
2023/03/07 09:33:09;;;;;;;8.50;2.72;;;7.60;99.90;;;;;;5066757;28;20403;-60
2023/03/07 09:35:36;;;;;;;7.80;2.50;;;7.60;99.90;;;;;;5082308;28;20906;-59
2023/03/07 09:38:02;;;;;;;9.52;2.92;;;6.70;99.90;;;;;;5088782;28;20393;-60
2023/03/07 09:40:27;;;;;;;9.70;3.20;;;6.60;99.90;;;;;;5089121;28;20390;-59
2023/03/07 09:43:09;;;;;;;9.57;3.67;;;6.70;99.90;;;;;;5088583;28;20374;-59
2023/03/07 09:46:05;;;;;;;8.05;2.63;;;6.70;99.90;;;;;;5089231;28;20959;-59
2023/03/07 09:48:56;;;;;;;9.00;3.30;;;6.90;99.90;;;;;;5089334;28;20488;-59
2023/03/07 09:51:34;;;;;;;9.98;3.40;;;7.10;99.90;;;;;;5079618;28;20402;-58
2023/03/07 09:54:13;;;;;;;8.80;3.07;;;6.80;99.90;;;;;;5088420;28;20394;-59
2023/03/07 09:56:44;;;;;;;11.45;3.03;;;6.90;99.90;;;;;;5088202;28;20486;-59
2023/03/07 09:59:23;;;;;;;9.73;3.33;;;6.80;99.90;;;;;;5088430;28;20409;-58
2023/03/07 10:02:00;;;;;;;10.10;3.93;;;6.80;99.90;;;;;;5084260;28;20396;-59
2023/03/07 10:04:33;;;;;;;8.63;2.72;;;6.70;99.90;;;;;;5088826;28;20408;-58
2023/03/07 10:07:01;;;;;;;8.63;2.80;;;7.40;99.90;;;;;;5087947;28;20424;-58
2023/03/07 10:09:27;;;;;;;10.43;2.63;;;7.10;99.90;;;;;;5087171;28;20405;-58
2023/03/07 10:12:17;;;;;;;9.40;2.90;;;6.40;99.90;;;;;;5088129;28;20469;-59
2023/03/07 10:15:02;;;;;;;12.32;3.47;;;6.40;99.90;;;;;;5078473;28;20406;-58
2023/03/07 10:18:05;;;;;;;11.48;3.60;;;6.50;99.90;;;;;;5087333;28;20481;-58
2023/03/07 10:20:41;;;;;;;8.80;2.30;;;6.80;99.90;;;;;;5088607;28;20840;-58
2023/03/07 10:23:44;;;;;;;7.03;2.40;;;6.70;99.90;;;;;;5088921;28;20385;-58
2023/03/07 10:26:19;;;;;;;9.10;2.55;;;6.40;99.90;;;;;;5088446;28;20398;-57
2023/03/07 10:28:46;;;;;;;7.18;2.35;;;6.50;99.90;;;;;;5087594;28;20964;-58
2023/03/07 10:31:38;;;;;;;9.82;3.03;;;6.30;99.90;;;;;;5088740;28;20394;-58
2023/03/07 10:34:24;;;;;;;7.30;2.05;;;6.50;99.90;;;;;;5072975;28;20398;-58
2023/03/07 10:36:51;;;;;;;9.00;2.20;;;6.30;99.90;;;;;;5091556;28;20405;-58
2023/03/07 10:39:44;;;;;;;8.10;2.27;;;6.10;99.90;;;;;;5092017;28;20386;-58
2023/03/07 10:42:12;;;;;;;8.15;2.80;;;5.00;99.90;;;;;;5086474;28;20447;-58
2023/03/07 10:44:38;;;;;;;7.97;2.38;;;7.70;99.90;;;;;;5091406;28;20552;-57
2023/03/07 10:47:04;;;;;;;8.80;2.90;;;6.20;99.90;;;;;;5091503;28;20925;-58
2023/03/07 10:49:38;;;;;;;7.60;2.30;;;6.30;99.90;;;;;;5092509;28;20394;-57
2023/03/07 10:52:14;;;;;;;9.60;2.70;;;6.70;99.90;;;;;;5092141;28;20398;-58
2023/03/07 10:54:40;;;;;;;10.52;3.08;;;6.00;99.90;;;;;;5088812;28;20486;-58
2023/03/07 10:57:14;;;;;;;8.47;2.87;;;6.60;99.90;;;;;;5092316;28;20426;-58
2023/03/07 10:59:42;;;;;;;10.20;3.25;;;6.10;99.90;;;;;;5051407;28;20389;-58
2023/03/07 11:02:38;;;;;;;10.02;3.30;;;7.50;99.90;;;;;;5087478;28;20386;-58
2023/03/07 11:05:31;;;;;;;11.25;3.47;;;6.30;99.90;;;;;;5091931;28;20839;-59
2023/03/07 11:08:17;;;;;;;9.05;2.78;;;6.20;99.90;;;;;;5090575;28;20973;-59
2023/03/07 11:10:44;;;;;;;9.50;3.08;;;6.10;99.90;;;;;;5090343;28;20713;-58
2023/03/07 11:13:18;;;;;;;10.48;3.55;;;6.30;99.90;;;;;;5089606;28;20382;-58
2023/03/07 11:15:44;;;;;;;9.18;3.08;;;7.30;99.90;;;;;;5089265;28;20396;-58
2023/03/07 11:18:37;;;;;;;8.50;2.42;;;5.90;99.90;;;;;;5091500;28;20382;-58
2023/03/07 11:21:03;;;;;;;11.50;3.50;;;5.80;99.90;;;;;;5081278;28;20390;-58
2023/03/07 11:23:30;;;;;;;9.82;3.42;;;5.80;99.90;;;;;;5091083;28;20743;-57
2023/03/07 11:26:17;;;;;;;10.15;3.65;;;5.90;99.90;;;;;;5090623;28;20394;-57
2023/03/07 11:28:42;;;;;;;11.88;3.92;;;6.00;99.90;;;;;;5085508;28;20430;-58
2023/03/07 11:31:21;;;;;;;12.05;3.80;;;6.00;99.90;;;;;;5091231;28;20409;-58
2023/03/07 11:33:56;;;;;;;12.80;5.47;;;5.90;99.90;;;;;;5082987;28;20430;-57
2023/03/07 11:36:27;;;;;;;10.02;3.13;;;6.00;99.90;;;;;;5091477;28;20524;-57
2023/03/07 11:39:23;;;;;;;8.77;2.95;;;5.90;99.90;;;;;;5090695;28;20393;-59
2023/03/07 11:41:55;;;;;;;7.22;1.50;;;5.80;99.90;;;;;;5084073;28;20767;-59
2023/03/07 11:44:41;;;;;;;9.35;3.50;;;5.70;99.90;;;;;;5091119;28;20393;-58
2023/03/07 11:47:26;;;;;;;10.90;2.92;;;5.80;99.90;;;;;;5079348;28;20406;-58
2023/03/07 11:50:14;;;;;;;13.35;3.42;;;5.90;99.90;;;;;;5090749;28;20397;-58
2023/03/07 11:53:01;;;;;;;8.13;2.50;;;6.00;99.90;;;;;;5091033;28;20871;-58
2023/03/07 11:55:33;;;;;;;7.55;3.10;;;6.10;99.90;;;;;;5091634;28;20393;-58
2023/03/07 11:58:09;;;;;;;9.02;2.42;;;6.20;99.90;;;;;;5089003;28;20421;-58
2023/03/07 12:00:34;;;;;;;10.75;3.70;;;6.40;99.90;;;;;;5090964;28;20398;-58
2023/03/07 12:03:14;;;;;;;9.33;2.80;;;6.60;99.90;;;;;;5079516;28;21192;-57
2023/03/07 12:05:53;;;;;;;7.10;2.17;;;6.60;99.90;;;;;;5090678;28;20394;-59
2023/03/07 12:08:27;;;;;;;9.00;2.22;;;6.60;99.90;;;;;;5090753;28;20416;-58
2023/03/07 12:11:40;;;;;;;9.80;3.50;;;6.80;99.90;;;;;;5089915;28;20410;-58
2023/03/07 12:14:25;;;;;;;9.13;2.78;;;7.00;99.90;;;;;;5042030;28;20431;-58
2023/03/07 12:16:56;;;;;;;8.52;2.72;;;7.30;99.90;;;;;;5088336;28;20793;-59
2023/03/07 12:19:41;;;;;;;8.82;2.80;;;7.30;99.90;;;;;;5090339;28;20394;-58
2023/03/07 12:22:15;;;;;;;7.05;1.90;;;6.20;99.90;;;;;;5090368;28;20466;-58
2023/03/07 12:25:08;;;;;;;7.50;2.33;;;7.10;99.90;;;;;;5089776;28;21084;-58
2023/03/07 12:27:37;;;;;;;8.88;2.50;;;6.90;99.90;;;;;;5088616;28;20445;-58
2023/03/07 12:30:12;;;;;;;8.85;3.30;;;7.00;99.90;;;;;;5088784;28;20406;-58
2023/03/07 12:32:38;;;;;;;8.27;2.40;;;7.20;99.90;;;;;;5079837;28;20396;-58
2023/03/07 12:35:34;;;;;;;8.63;2.60;;;7.10;99.90;;;;;;5088234;28;20390;-58
2023/03/07 12:38:18;;;;;;;10.20;3.20;;;7.10;99.90;;;;;;5088552;28;20454;-59
2023/03/07 12:40:52;;;;;;;9.38;3.05;;;7.30;99.90;;;;;;5088888;28;20446;-59
2023/03/07 12:43:20;;;;;;;8.30;2.80;;;8.20;99.90;;;;;;5088613;28;20468;-59
2023/03/07 12:46:08;;;;;;;9.70;3.00;;;7.20;99.90;;;;;;5069192;28;20434;-61
2023/03/07 12:48:51;;;;;;;9.40;2.78;;;7.30;99.90;;;;;;5066822;28;20412;-58
2023/03/07 12:51:37;;;;;;;8.77;2.92;;;7.20;99.90;;;;;;5058171;28;20404;-61
2023/03/07 12:54:11;;;;;;;10.43;2.50;;;7.20;99.90;;;;;;5059065;28;20401;-58
2023/03/07 12:57:02;;;;;;;9.35;2.92;;;7.50;99.90;;;;;;5066881;28;20427;-59
2023/03/07 12:59:31;;;;;;;7.73;2.30;;;7.60;99.90;;;;;;5062964;28;20417;-58